CYYZ/YYZ METAR and TAF weather

Enter ICAO airport designator
Example: see airport list
Station Type Date Time Source
CYYZ METAR 2016/09/30 18:00 UTC NOAA

CYYZ 301800Z 08018G25KT 15SM FEW025 SCT090 BKN250 18/10 A3028 RMK SC1AC4CC2 SC TR SLP257 DENSITY ALT 600FT


Station Type Date Time Source
CYYZ Decoded METAR 2016/09/30 18:00 UTC NOAA

Toronto Pearson Int'L. Ont., Canada (CYYZ) 43-40N 079-38W 173M
Sep 30, 2016 - 02:00 PM EDT / 2016.09.30 1800 UTC
Wind: from the E (080 degrees) at 21 MPH (18 KT) gusting to 29 MPH (25 KT):0
Visibility: 15 mile(s):0
Sky conditions: mostly cloudy
Temperature: 64 F (18 C)
Dew Point: 50 F (10 C)
Relative Humidity: 59%
Pressure (altimeter): 30.28 in. Hg (1025 hPa)
ob: CYYZ 301800Z 08018G25KT 15SM FEW025 SCT090 BKN250 18/10 A3028 RMK SC1AC4CC2 SC TR SLP257 DENSITY ALT 600FT
cycle: 18

Station Type Date Time Source
CYYZ TAF 2016/09/30 18:42 UTC NOAA

TAF TAF CYYZ 301741Z 3018/0124 09012G22KT P6SM FEW025 BKN090
FM010000 09010G20KT P6SM FEW020 OVC060
TEMPO 0102/0104 P6SM -RA BKN020 OVC060
FM010400 09008G18KT P6SM OVC012
TEMPO 0104/0108 4SM -RA -DZ BR OVC008
FM010800 10008G18KT 3SM -RA -DZ BR OVC007
FM011400 10008KT 5SM -RA -DZ BR BKN008 OVC015
RMK NXT FCST BY 302100Z